Time;durP1;ratioP1;P1;durP2;ratioP2;P2;SDS_P1;SDS_P2;PMS_P1;PMS_P2;Temp;Humidity;BMP_temperature;BMP_pressure;BME280_temperature;BME280_humidity;BME280_pressure;Samples;Min_cycle;Max_cycle;Signal;HPM_P1;HPM_P2
2021/09/03 00:02:21;;;;;;;;;13.75;12.00;;;;;18.38;57.93;101221.66;5098291;27;69393;-60
2021/09/03 00:04:46;;;;;;;;;15.75;13.75;;;;;18.37;57.73;101227.97;5064078;27;45606;-60
2021/09/03 00:07:12;;;;;;;;;12.50;12.00;;;;;18.35;58.17;101222.00;5098066;27;72264;-61
2021/09/03 00:09:37;;;;;;;;;14.00;13.00;;;;;18.34;58.36;101228.31;5099120;27;45348;-62
2021/09/03 00:12:03;;;;;;;;;15.75;13.00;;;;;18.34;58.28;101229.13;5098706;27;49838;-60
2021/09/03 00:14:29;;;;;;;;;16.50;13.75;;;;;18.33;58.47;101230.13;5098968;27;45649;-61
2021/09/03 00:16:54;;;;;;;;;17.50;15.25;;;;;18.33;58.39;101229.31;5097895;27;73357;-61
2021/09/03 00:19:20;;;;;;;;;14.50;13.00;;;;;18.31;58.27;101215.34;5098308;27;60311;-60
2021/09/03 00:21:45;;;;;;;;;14.50;13.25;;;;;18.31;58.49;101216.16;5098685;27;45547;-61
2021/09/03 00:24:10;;;;;;;;;13.25;11.75;;;;;18.31;58.50;101215.34;5098212;27;62199;-60
2021/09/03 00:26:36;;;;;;;;;14.00;11.75;;;;;18.29;58.10;101218.16;5097954;27;66719;-60
2021/09/03 00:29:01;;;;;;;;;15.00;12.25;;;;;18.30;58.37;101208.38;5097812;27;69334;-61
2021/09/03 00:31:26;;;;;;;;;15.00;12.25;;;;;18.30;58.61;101211.03;5098508;27;48795;-61
2021/09/03 00:33:52;;;;;;;;;13.75;12.50;;;;;18.30;58.26;101205.72;5097769;27;65653;-61
2021/09/03 00:36:17;;;;;;;;;16.50;11.50;;;;;18.26;58.42;101207.06;5097822;27;67897;-60
2021/09/03 00:38:42;;;;;;;;;15.00;12.25;;;;;18.24;58.31;101209.91;5079668;27;64050;-61
2021/09/03 00:41:08;;;;;;;;;16.50;12.75;;;;;18.21;58.55;101203.06;5097761;27;64749;-61
2021/09/03 00:43:33;;;;;;;;;17.50;14.25;;;;;18.17;58.98;101203.59;5097719;27;63124;-59
2021/09/03 00:45:59;;;;;;;;;14.50;12.75;;;;;18.16;59.03;101205.41;5080084;27;47003;-60
2021/09/03 00:48:24;;;;;;;;;15.50;13.25;;;;;18.15;58.93;101195.78;5097532;27;71131;-59
2021/09/03 00:50:53;;;;;;;;;15.50;14.25;;;;;18.09;59.13;101197.28;5097589;27;67109;-61
2021/09/03 00:53:18;;;;;;;;;14.00;12.75;;;;;18.07;59.40;101190.47;5098697;27;45308;-61
2021/09/03 00:55:44;;;;;;;;;17.25;16.00;;;;;18.05;59.43;101184.47;5098315;27;45794;-60
2021/09/03 00:58:10;;;;;;;;;14.50;14.25;;;;;18.01;59.56;101181.34;5098379;27;45595;-60
2021/09/03 01:00:35;;;;;;;;;16.50;14.50;;;;;17.99;59.96;101183.34;5097652;27;56280;-60
2021/09/03 01:03:00;;;;;;;;;18.00;16.00;;;;;17.96;59.82;101178.34;5097309;27;68743;-60
2021/09/03 01:05:26;;;;;;;;;19.00;16.25;;;;;17.94;60.15;101178.53;5097207;27;72004;-60
2021/09/03 01:07:51;;;;;;;;;14.75;13.25;;;;;17.90;60.08;101174.53;5097990;27;50270;-61
2021/09/03 01:10:19;;;;;;;;;17.00;14.50;;;;;17.88;60.01;101173.88;5098154;27;45665;-62
2021/09/03 01:12:44;;;;;;;;;17.75;15.75;;;;;17.84;60.37;101169.88;5097484;27;45316;-60
2021/09/03 01:15:09;;;;;;;;;15.50;14.25;;;;;17.81;60.44;101172.88;5097475;27;55743;-61
2021/09/03 01:17:37;;;;;;;;;18.25;14.50;;;;;17.80;60.85;101163.25;5097352;27;62913;-61
2021/09/03 01:20:03;;;;;;;;;18.25;15.00;;;;;17.78;60.59;101158.09;5098132;27;45162;-60
2021/09/03 01:22:28;;;;;;;;;15.50;14.50;;;;;17.75;60.78;101166.38;5097777;27;45238;-61
2021/09/03 01:24:53;;;;;;;;;12.50;11.25;;;;;17.74;60.92;101166.56;5096812;27;72093;-61
2021/09/03 01:27:19;;;;;;;;;17.50;16.00;;;;;17.69;61.04;101156.47;5097047;27;65713;-61
2021/09/03 01:29:44;;;;;;;;;20.75;16.25;;;;;17.65;61.20;101163.91;5097227;27;58135;-61
2021/09/03 01:32:10;;;;;;;;;18.75;14.75;;;;;17.66;61.32;101156.78;5097811;27;45301;-61
2021/09/03 01:34:35;;;;;;;;;18.75;15.25;;;;;17.63;61.29;101157.94;5096640;27;70780;-61
2021/09/03 01:37:00;;;;;;;;;23.00;17.50;;;;;17.61;61.37;101157.28;5097477;27;47857;-62
2021/09/03 01:39:26;;;;;;;;;17.25;16.00;;;;;17.60;61.44;101155.63;5097656;27;45386;-61
2021/09/03 01:41:51;;;;;;;;;16.75;15.50;;;;;17.59;61.25;101153.97;5096745;27;45689;-60
2021/09/03 01:44:17;;;;;;;;;15.50;14.50;;;;;17.57;61.66;101155.94;5096507;27;45398;-61
2021/09/03 01:46:42;;;;;;;;;19.00;17.25;;;;;17.54;61.78;101160.78;5096819;27;63066;-61
2021/09/03 01:49:07;;;;;;;;;18.25;15.50;;;;;17.55;61.73;101152.63;5096387;27;66794;-60
2021/09/03 01:51:33;;;;;;;;;18.00;17.75;;;;;17.56;61.71;101145.50;5097484;27;45331;-61
2021/09/03 01:53:59;;;;;;;;;16.25;14.25;;;;;17.59;61.68;101148.63;5097180;27;46349;-61
2021/09/03 01:56:24;;;;;;;;;20.00;16.75;;;;;17.59;61.70;101148.63;5097263;27;45340;-60
2021/09/03 01:58:49;;;;;;;;;24.75;20.50;;;;;17.58;61.67;101146.97;5097309;27;45337;-60
2021/09/03 02:01:15;;;;;;;;;16.25;16.00;;;;;17.57;61.73;101145.31;5096588;27;63659;-61
2021/09/03 02:03:40;;;;;;;;;19.75;16.75;;;;;17.56;61.80;101142.84;5095683;27;45428;-60
2021/09/03 02:06:05;;;;;;;;;20.75;19.75;;;;;17.57;61.72;101145.31;5096391;27;65561;-60
2021/09/03 02:08:31;;;;;;;;;14.75;14.50;;;;;17.59;61.77;101145.16;5097310;27;45193;-59
2021/09/03 02:10:56;;;;;;;;;18.50;16.25;;;;;17.56;61.81;101148.97;5096891;27;45278;-60
2021/09/03 02:13:22;;;;;;;;;14.00;12.75;;;;;17.56;61.63;101148.97;5096795;27;45467;-60
2021/09/03 02:15:48;;;;;;;;;21.25;18.50;;;;;17.55;61.61;101144.66;5095913;27;68958;-60
2021/09/03 02:18:13;;;;;;;;;22.75;16.00;;;;;17.55;61.59;101144.66;5096226;27;45362;-61
2021/09/03 02:20:39;;;;;;;;;21.00;17.75;;;;;17.55;61.77;101147.31;5096805;27;45216;-60
2021/09/03 02:23:04;;;;;;;;;19.25;18.50;;;;;17.54;61.93;101139.53;5096777;27;46870;-60
2021/09/03 02:25:29;;;;;;;;;17.50;15.75;;;;;17.54;62.03;101145.66;5096860;27;45307;-61
2021/09/03 02:27:55;;;;;;;;;22.25;16.50;;;;;17.54;61.75;101139.53;5096223;27;59475;-61
2021/09/03 02:30:20;;;;;;;;;22.50;20.75;;;;;17.51;61.33;101130.03;5095791;27;68327;-61
2021/09/03 02:32:45;;;;;;;;;24.00;21.00;;;;;17.51;61.65;101130.03;5096082;27;65071;-60
2021/09/03 02:35:11;;;;;;;;;21.00;16.75;;;;;17.47;61.66;101124.25;5095747;27;68917;-61
2021/09/03 02:37:36;;;;;;;;;23.00;19.25;;;;;17.45;61.69;101122.78;5096078;27;60130;-60
2021/09/03 02:40:02;;;;;;;;;24.25;17.25;;;;;17.42;61.81;101131.06;5095982;27;64757;-60
2021/09/03 02:42:28;;;;;;;;;23.00;18.50;;;;;17.38;61.93;101127.91;5096546;27;45356;-61
2021/09/03 02:44:53;;;;;;;;;21.50;17.00;;;;;17.35;61.93;101125.56;5095858;27;62293;-60
2021/09/03 02:47:18;;;;;;;;;19.75;17.00;;;;;17.33;62.15;101132.88;5096812;27;45380;-60
2021/09/03 02:49:44;;;;;;;;;21.50;18.00;;;;;17.29;62.11;101129.75;5095818;27;66377;-61
2021/09/03 02:52:09;;;;;;;;;17.00;14.50;;;;;17.25;62.23;101125.75;5077416;27;56729;-61
2021/09/03 02:54:34;;;;;;;;;21.75;16.75;;;;;17.24;62.15;101121.44;5095819;27;62276;-61
2021/09/03 02:57:00;;;;;;;;;23.50;18.75;;;;;17.22;62.30;101119.97;5096370;27;48004;-61
2021/09/03 02:59:25;;;;;;;;;18.00;16.25;;;;;17.19;62.32;101121.94;5096031;27;56907;-60
2021/09/03 03:01:50;;;;;;;;;22.50;20.50;;;;;17.18;62.53;101114.13;5095774;27;64066;-61
2021/09/03 03:04:16;;;;;;;;;20.75;18.50;;;;;17.15;62.49;101119.75;5077747;27;53249;-61
2021/09/03 03:06:41;;;;;;;;;18.25;18.00;;;;;17.13;62.50;101116.44;5096529;27;45226;-60
2021/09/03 03:09:07;;;;;;;;;21.00;18.75;;;;;17.14;62.46;101118.09;5095658;27;62507;-61
2021/09/03 03:11:32;;;;;;;;;20.00;16.50;;;;;17.10;62.66;101122.09;5095356;27;71715;-60
2021/09/03 03:14:42;;;;;;;;;17.75;16.75;;;;;17.08;62.96;101118.75;5095494;27;61165;-61
2021/09/03 03:16:43;;;;;;;;;20.75;17.25;;;;;17.05;62.50;101115.44;5081723;27;45351;-60
2021/09/03 03:19:08;;;;;;;;;22.75;16.50;;;;;17.02;62.60;101110.47;5095447;27;65965;-60
2021/09/03 03:21:34;;;;;;;;;20.00;17.00;;;;;17.02;62.64;101105.16;5095808;27;45989;-61
2021/09/03 03:23:59;;;;;;;;;20.75;20.75;;;;;17.01;62.46;101102.66;5096384;27;72227;-60
2021/09/03 03:26:25;;;;;;;;;24.50;19.75;;;;;16.98;62.69;101108.31;5099054;27;60530;-61
2021/09/03 03:28:50;;;;;;;;;20.25;18.50;;;;;16.97;62.89;101106.66;5099084;27;60390;-61
2021/09/03 03:31:15;;;;;;;;;25.75;19.00;;;;;16.97;62.84;101106.66;5080196;27;72943;-60
2021/09/03 03:33:41;;;;;;;;;24.75;23.00;;;;;16.96;62.83;101105.81;5098617;27;66067;-60
2021/09/03 03:36:06;;;;;;;;;25.00;23.25;;;;;16.92;62.95;101105.28;5099784;27;45738;-61
2021/09/03 03:38:32;;;;;;;;;24.00;19.75;;;;;16.92;62.92;101104.47;5098768;27;61489;-60
2021/09/03 03:40:57;;;;;;;;;21.00;19.00;;;;;16.89;62.95;101100.31;5098620;27;67909;-61
2021/09/03 03:43:23;;;;;;;;;22.00;20.50;;;;;16.89;62.91;101094.19;5098625;27;65383;-61
2021/09/03 03:45:48;;;;;;;;;23.00;22.50;;;;;16.88;63.02;101100.47;5099511;27;45307;-60
2021/09/03 03:48:13;;;;;;;;;23.00;21.00;;;;;16.86;63.38;101102.47;5099118;27;52515;-61
2021/09/03 03:50:39;;;;;;;;;22.00;21.75;;;;;16.85;63.11;101100.81;5098557;27;65142;-59
2021/09/03 03:53:04;;;;;;;;;24.75;20.00;;;;;16.85;63.13;101093.66;5098663;27;62030;-60
2021/09/03 03:55:29;;;;;;;;;23.75;20.25;;;;;16.85;63.16;101082.22;5098247;27;65452;-61
2021/09/03 03:57:55;;;;;;;;;23.25;21.25;;;;;16.85;62.87;101090.19;5098197;27;68866;-61
2021/09/03 04:00:20;;;;;;;;;26.75;21.75;;;;;16.82;63.24;101087.84;5098424;27;66861;-60
2021/09/03 04:02:45;;;;;;;;;20.75;19.00;;;;;16.81;62.97;101087.00;5099206;27;45373;-60
2021/09/03 04:05:11;;;;;;;;;21.25;18.50;;;;;16.79;63.00;101088.19;5099264;27;45331;-61
2021/09/03 04:07:36;;;;;;;;;21.75;21.75;;;;;16.76;63.30;101084.88;5098209;27;63938;-60
2021/09/03 04:10:03;;;;;;;;;25.25;19.75;;;;;16.75;63.28;101087.66;5098514;27;59921;-61
2021/09/03 04:12:28;;;;;;;;;26.00;22.25;;;;;16.71;63.50;101091.63;5099053;27;45362;-60
2021/09/03 04:14:54;;;;;;;;;23.00;19.25;;;;;16.68;63.45;101103.41;5098080;27;64798;-61
2021/09/03 04:17:19;;;;;;;;;25.50;20.75;;;;;16.66;63.60;101099.28;5098642;27;59216;-60
2021/09/03 04:19:44;;;;;;;;;26.50;22.50;;;;;16.66;63.56;101101.94;5098124;27;65504;-59
2021/09/03 04:22:10;;;;;;;;;23.75;19.50;;;;;16.65;63.46;101109.03;5079985;27;47748;-61
2021/09/03 04:24:35;;;;;;;;;20.50;17.50;;;;;16.63;63.71;101100.41;5098683;27;46891;-60
2021/09/03 04:27:02;;;;;;;;;21.25;18.75;;;;;16.64;63.35;101099.44;5098921;27;45433;-61
2021/09/03 04:29:28;;;;;;;;;22.75;21.50;;;;;16.63;63.23;101104.91;5097451;27;46303;-61
2021/09/03 04:31:54;;;;;;;;;26.00;20.00;;;;;16.62;63.42;101109.38;5098689;27;45225;-61
2021/09/03 04:34:19;;;;;;;;;22.50;20.50;;;;;16.59;63.34;101113.19;5098167;27;45252;-60
2021/09/03 04:36:45;;;;;;;;;22.50;19.75;;;;;16.57;63.34;101106.38;5097994;27;62400;-60
2021/09/03 04:39:10;;;;;;;;;23.50;22.75;;;;;16.56;63.50;101102.06;5097683;27;71458;-61
2021/09/03 04:41:35;;;;;;;;;27.75;21.50;;;;;16.54;63.34;101110.19;5097828;27;63595;-60
2021/09/03 04:44:01;;;;;;;;;22.75;18.25;;;;;16.51;63.30;101102.56;5097988;27;62368;-61
2021/09/03 04:46:26;;;;;;;;;25.50;24.25;;;;;16.48;62.99;101102.88;5062442;27;67250;-61
2021/09/03 04:48:51;;;;;;;;;23.50;20.50;;;;;16.44;63.20;101099.69;5097640;27;67918;-61
2021/09/03 04:51:17;;;;;;;;;25.00;21.75;;;;;16.42;63.41;101098.22;5098479;27;45395;-61
2021/09/03 04:53:42;;;;;;;;;26.00;20.50;;;;;16.40;63.43;101108.16;5098508;27;45305;-60
2021/09/03 04:56:08;;;;;;;;;20.25;18.25;;;;;16.34;63.37;101099.03;5097711;27;54271;-61
2021/09/03 04:58:33;;;;;;;;;24.50;20.25;;;;;16.29;63.67;101098.66;5097321;27;72324;-60
2021/09/03 05:00:58;;;;;;;;;24.25;21.00;;;;;16.24;63.52;101095.66;5097515;27;63930;-60
2021/09/03 05:03:24;;;;;;;;;24.50;22.00;;;;;16.20;64.08;101096.97;5098169;27;45445;-60
2021/09/03 05:05:49;;;;;;;;;26.50;21.75;;;;;16.16;63.91;101093.81;5097627;27;61633;-60
2021/09/03 05:08:15;;;;;;;;;25.00;22.00;;;;;16.16;63.90;101093.81;5097519;27;58552;-60
2021/09/03 05:10:40;;;;;;;;;26.00;23.75;;;;;16.14;63.97;101080.72;5098111;27;45425;-61
2021/09/03 05:13:05;;;;;;;;;32.75;26.25;;;;;16.14;63.83;101078.06;5098125;27;45319;-61
2021/09/03 05:15:36;;;;;;;;;28.50;25.75;;;;;16.15;63.88;101087.66;5097754;27;46190;-60
2021/09/03 05:18:01;;;;;;;;;32.50;26.00;;;;;16.16;64.23;101084.03;5062794;27;45408;-60
2021/09/03 05:20:27;;;;;;;;;30.50;27.00;;;;;16.17;63.97;101079.53;5061704;27;73068;-61
2021/09/03 05:22:52;;;;;;;;;27.00;22.50;;;;;16.15;63.88;101087.66;5097998;27;45316;-60
2021/09/03 05:25:18;;;;;;;;;29.75;25.75;;;;;16.15;63.97;101089.50;5097850;27;45225;-60
2021/09/03 05:27:43;;;;;;;;;26.50;22.50;;;;;16.15;63.98;101089.50;5097749;27;45949;-60
2021/09/03 05:30:09;;;;;;;;;31.00;26.50;;;;;16.16;63.69;101089.34;5097676;27;45259;-59
2021/09/03 05:32:35;;;;;;;;;35.75;26.00;;;;;16.18;63.75;101091.81;5096624;27;45334;-61
2021/09/03 05:35:01;;;;;;;;;30.50;25.00;;;;;16.20;63.87;101091.66;5097864;27;45565;-61
2021/09/03 05:37:26;;;;;;;;;29.00;26.50;;;;;16.20;64.00;101089.81;5097240;27;46110;-60
2021/09/03 05:39:52;;;;;;;;;28.00;24.25;;;;;16.23;63.76;101092.16;5097418;27;45423;-61
2021/09/03 05:42:18;;;;;;;;;35.50;28.00;;;;;16.25;63.83;101090.19;5097183;27;46640;-61
2021/09/03 05:44:43;;;;;;;;;24.50;22.50;;;;;16.28;63.16;101087.22;5097274;27;45394;-61
2021/09/03 05:47:09;;;;;;;;;28.00;24.50;;;;;16.28;63.28;101081.91;5077478;27;52306;-60
2021/09/03 05:49:34;;;;;;;;;27.25;24.00;;;;;16.29;63.54;101080.91;5096981;27;54358;-61
2021/09/03 05:52:00;;;;;;;;;31.75;28.25;;;;;16.31;63.67;101092.19;5097508;27;45965;-62
2021/09/03 05:54:25;;;;;;;;;31.25;27.50;;;;;16.35;63.13;101091.88;5097034;27;45553;-61
2021/09/03 05:56:50;;;;;;;;;28.50;26.25;;;;;16.35;63.21;101087.41;5096109;27;65790;-60
2021/09/03 05:59:16;;;;;;;;;26.75;26.00;;;;;16.35;63.48;101092.72;5096231;27;45588;-61
2021/09/03 06:01:41;;;;;;;;;31.25;27.50;;;;;16.36;63.28;101093.53;5096311;27;63477;-60
2021/09/03 06:04:06;;;;;;;;;38.75;31.50;;;;;16.38;63.19;101094.22;5077892;27;65028;-60
2021/09/03 06:06:32;;;;;;;;;48.50;35.75;;;;;16.39;63.06;101103.81;5096989;27;46028;-60
2021/09/03 06:08:57;;;;;;;;;60.00;44.75;;;;;16.40;63.36;101101.03;5096677;27;57985;-60
2021/09/03 06:11:25;;;;;;;;;62.50;45.75;;;;;16.43;63.11;101095.38;5096374;27;61816;-60
2021/09/03 06:13:52;;;;;;;;;63.50;48.00;;;;;16.45;63.11;101100.53;5078591;27;45349;-60
2021/09/03 06:16:17;;;;;;;;;67.75;49.00;;;;;16.49;62.70;101101.03;5078272;27;46240;-60
2021/09/03 06:18:43;;;;;;;;;71.75;51.75;;;;;16.51;63.04;101097.25;5096181;27;65046;-61
2021/09/03 06:21:08;;;;;;;;;69.50;54.25;;;;;16.58;63.09;101097.41;5096724;27;45509;-60
2021/09/03 06:23:34;;;;;;;;;83.50;64.25;;;;;16.61;62.59;101103.25;5096770;27;45355;-61
2021/09/03 06:25:59;;;;;;;;;83.50;69.25;;;;;16.68;62.80;101105.25;5096736;27;45351;-63
2021/09/03 06:28:24;;;;;;;;;84.00;66.00;;;;;16.75;62.34;101099.13;5096157;27;59347;-61
2021/09/03 06:30:50;;;;;;;;;81.75;66.75;;;;;16.82;62.34;101099.28;5096316;27;51107;-61
2021/09/03 06:33:15;;;;;;;;;78.75;63.75;;;;;16.89;62.22;101105.59;5096068;27;61710;-60
2021/09/03 06:35:40;;;;;;;;;79.00;62.50;;;;;16.99;62.18;101102.00;5095326;27;75467;-61
2021/09/03 06:38:06;;;;;;;;;77.25;55.75;;;;;17.11;61.97;101105.16;5096086;27;60758;-61
2021/09/03 06:40:31;;;;;;;;;75.00;55.75;;;;;17.24;62.07;101094.03;5096763;27;45453;-60
2021/09/03 06:42:57;;;;;;;;;72.75;55.00;;;;;17.34;61.76;101098.19;5095923;27;61684;-60
2021/09/03 06:45:22;;;;;;;;;63.25;46.00;;;;;17.46;61.07;101098.69;5095589;27;66934;-61
2021/09/03 06:47:48;;;;;;;;;60.25;46.50;;;;;17.57;61.29;101102.00;5078319;27;45537;-60
2021/09/03 06:50:13;;;;;;;;;56.00;40.25;;;;;17.71;60.56;101108.44;5095729;27;67315;-60
2021/09/03 06:52:39;;;;;;;;;36.50;32.25;;;;;17.82;60.39;101099.28;5096632;27;45547;-60
2021/09/03 06:55:05;;;;;;;;;30.25;27.00;;;;;17.94;60.03;101104.06;5095407;27;71542;-60
2021/09/03 06:57:30;;;;;;;;;28.00;24.00;;;;;18.08;59.57;101104.38;5097030;27;45350;-60
2021/09/03 06:59:56;;;;;;;;;33.00;27.75;;;;;18.20;59.46;101105.66;5100208;27;45581;-60
2021/09/03 07:02:21;;;;;;;;;27.75;21.50;;;;;18.33;59.21;101104.28;5100118;27;45255;-60
2021/09/03 07:04:46;;;;;;;;;25.75;23.00;;;;;18.47;58.63;101103.56;5099849;27;50125;-61
2021/09/03 07:07:12;;;;;;;;;19.25;16.75;;;;;18.60;58.44;101096.81;5099876;27;45453;-61
2021/09/03 07:09:37;;;;;;;;;22.00;19.25;;;;;18.72;57.90;101111.38;5099335;27;64137;-60
2021/09/03 07:12:03;;;;;;;;;23.75;21.50;;;;;18.85;57.62;101110.78;5099556;27;51592;-60
2021/09/03 07:14:28;;;;;;;;;22.00;18.25;;;;;18.96;57.45;101102.44;5099462;27;48070;-60
2021/09/03 07:16:54;;;;;;;;;22.00;19.75;;;;;19.07;57.33;101103.03;5099100;27;59140;-61
2021/09/03 07:19:19;;;;;;;;;22.50;21.50;;;;;19.20;56.89;101103.25;5099310;27;56775;-61
2021/09/03 07:21:45;;;;;;;;;21.50;21.25;;;;;19.34;56.65;101108.81;5099634;27;45241;-60
2021/09/03 07:24:11;;;;;;;;;19.50;19.00;;;;;19.49;56.14;101107.00;5099587;27;46029;-61
2021/09/03 07:26:36;;;;;;;;;21.75;18.75;;;;;19.62;55.80;101105.53;5099102;27;60139;-60
2021/09/03 07:29:02;;;;;;;;;20.75;18.75;;;;;19.76;55.51;101096.72;5099618;27;45308;-61
2021/09/03 07:31:28;;;;;;;;;23.25;19.50;;;;;19.88;55.00;101105.09;5099812;27;45232;-61
2021/09/03 07:33:53;;;;;;;;;21.25;19.75;;;;;20.01;55.26;101104.47;5092591;27;75477;-60
2021/09/03 07:36:18;;;;;;;;;19.50;19.00;;;;;20.15;54.80;101097.47;5090039;27;55634;-60
2021/09/03 07:38:44;;;;;;;;;28.00;23.25;;;;;20.29;54.85;101101.97;5093047;27;63324;-62
2021/09/03 07:41:09;;;;;;;;;20.50;20.00;;;;;20.39;53.76;101099.00;5093248;27;45385;-60
2021/09/03 07:43:35;;;;;;;;;21.25;18.50;;;;;20.54;53.71;101104.31;5092674;27;45449;-61
2021/09/03 07:46:00;;;;;;;;;16.75;16.00;;;;;20.69;53.31;101096.25;5092022;27;46227;-61
2021/09/03 07:48:25;;;;;;;;;23.00;21.00;;;;;20.85;53.05;101105.06;5095248;27;56199;-60
2021/09/03 07:50:51;;;;;;;;;22.00;20.75;;;;;20.99;52.96;101101.50;5095419;27;63039;-60
2021/09/03 07:53:16;;;;;;;;;21.50;19.25;;;;;21.09;52.61;101095.84;5093477;27;46274;-62
2021/09/03 07:55:42;;;;;;;;;22.00;19.25;;;;;21.22;52.62;101100.47;5091136;27;65159;-61
2021/09/03 07:58:07;;;;;;;;;23.25;18.25;;;;;21.35;52.22;101095.22;5090148;27;45516;-61
2021/09/03 08:00:33;;;;;;;;;19.00;16.50;;;;;21.54;52.32;101102.75;5084899;27;46514;-61
2021/09/03 08:02:58;;;;;;;;;20.50;18.50;;;;;21.71;51.87;101098.78;5081999;27;46026;-61
2021/09/03 08:05:24;;;;;;;;;20.00;18.25;;;;;21.89;51.58;101090.25;5079306;27;66310;-60
2021/09/03 08:07:49;;;;;;;;;23.75;21.25;;;;;22.05;50.82;101096.28;5081407;27;45414;-60
2021/09/03 08:10:15;;;;;;;;;17.00;17.00;;;;;22.20;51.01;101096.16;5079155;27;45370;-59
2021/09/03 08:12:41;;;;;;;;;18.50;17.00;;;;;22.35;50.15;101096.00;5079105;27;45825;-61
2021/09/03 08:15:07;;;;;;;;;17.75;16.00;;;;;22.52;49.70;101093.81;5078691;27;69104;-61
2021/09/03 08:17:33;;;;;;;;;19.75;18.50;;;;;22.70;49.16;101103.13;5079446;27;45267;-61
2021/09/03 08:19:58;;;;;;;;;18.50;16.25;;;;;22.84;48.91;101096.75;5088475;27;45351;-60
2021/09/03 08:22:24;;;;;;;;;21.50;18.00;;;;;22.96;48.93;101092.44;5084520;27;45694;-60
2021/09/03 08:24:49;;;;;;;;;16.75;14.00;;;;;23.12;48.24;101093.06;5068935;27;45302;-61
2021/09/03 08:27:14;;;;;;;;;14.25;14.00;;;;;23.27;47.95;101092.88;5089689;27;45830;-61
2021/09/03 08:29:40;;;;;;;;;14.75;11.75;;;;;23.44;47.99;101093.28;5089741;27;64428;-60
2021/09/03 08:32:06;;;;;;;;;14.25;12.50;;;;;23.56;47.48;101096.97;5087732;27;46132;-62
2021/09/03 08:34:31;;;;;;;;;16.25;15.00;;;;;23.71;47.49;101099.41;5086798;27;46390;-61
2021/09/03 08:36:56;;;;;;;;;16.50;14.50;;;;;23.88;46.66;101100.81;5082428;27;60806;-61
2021/09/03 08:39:22;;;;;;;;;14.75;13.75;;;;;23.98;45.93;101095.84;5090289;27;45580;-61
2021/09/03 08:41:47;;;;;;;;;13.75;13.50;;;;;24.11;45.70;101090.44;5088085;27;69783;-61
2021/09/03 08:44:14;;;;;;;;;15.75;12.75;;;;;24.23;45.42;101100.53;5089358;27;45557;-61
2021/09/03 08:46:40;;;;;;;;;15.00;15.00;;;;;24.34;45.31;101099.88;5087823;27;45468;-60
2021/09/03 08:49:07;;;;;;;;;13.25;12.50;;;;;24.47;44.95;101095.44;5057101;27;45677;-60
2021/09/03 08:51:32;;;;;;;;;20.00;14.75;;;;;24.59;44.60;101093.72;5086498;27;46207;-60
2021/09/03 08:53:58;;;;;;;;;15.75;14.50;;;;;24.73;44.70;101092.63;5068478;27;60118;-60
2021/09/03 08:56:23;;;;;;;;;13.00;13.00;;;;;24.86;44.19;101088.22;5085854;27;67000;-61
2021/09/03 08:58:48;;;;;;;;;18.25;15.00;;;;;25.00;44.21;101084.34;5086111;27;63060;-61
2021/09/03 09:01:15;;;;;;;;;13.00;12.00;;;;;25.14;44.02;101095.00;5085125;27;46074;-61
2021/09/03 09:03:41;;;;;;;;;15.25;13.25;;;;;25.26;43.22;101085.19;5086783;27;45997;-61
2021/09/03 09:06:07;;;;;;;;;14.25;13.75;;;;;25.38;43.16;101090.66;5088507;27;45347;-60
2021/09/03 09:08:34;;;;;;;;;17.25;14.25;;;;;25.51;43.02;101089.72;5090480;27;45655;-61
2021/09/03 09:11:10;;;;;;;;;14.25;12.50;;;;;25.62;42.96;101091.69;5079338;27;45981;-61
2021/09/03 09:13:44;;;;;;;;;14.75;14.00;;;;;25.74;42.22;101090.94;5062782;27;45849;-60
2021/09/03 09:16:13;;;;;;;;;14.00;13.25;;;;;25.81;42.09;101078.25;5081133;27;45463;-61
2021/09/03 09:18:51;;;;;;;;;14.50;13.50;;;;;25.92;41.85;101080.19;5081443;27;45521;-61
2021/09/03 09:21:17;;;;;;;;;16.50;13.25;;;;;25.98;41.50;101080.31;5059868;27;46321;-61
2021/09/03 09:23:45;;;;;;;;;13.25;12.75;;;;;26.01;41.63;101075.31;5077963;27;45613;-61
2021/09/03 09:26:11;;;;;;;;;14.25;12.75;;;;;26.08;41.54;101073.34;5060521;27;45494;-61
2021/09/03 09:28:36;;;;;;;;;13.50;12.50;;;;;26.22;41.77;101081.28;5077746;27;45384;-61
2021/09/03 09:31:01;;;;;;;;;14.25;13.75;;;;;26.32;41.46;101078.03;5075684;27;45248;-60
2021/09/03 09:33:27;;;;;;;;;15.50;14.50;;;;;26.43;41.02;101081.81;5074961;27;68439;-61
2021/09/03 09:35:56;;;;;;;;;12.50;12.50;;;;;26.54;40.63;101074.81;5087301;27;45219;-61
2021/09/03 09:38:25;;;;;;;;;13.50;13.50;;;;;26.59;40.69;101074.97;5074062;27;45531;-61
2021/09/03 09:40:51;;;;;;;;;14.75;14.00;;;;;26.73;40.21;101072.91;5075538;27;45450;-61
2021/09/03 09:43:22;;;;;;;;;13.75;13.25;;;;;26.80;40.68;101074.44;5083270;27;46076;-60
2021/09/03 09:46:19;;;;;;;;;14.00;13.00;;;;;26.91;39.82;101072.03;5088667;27;45474;-61
2021/09/03 09:48:51;;;;;;;;;14.00;11.75;;;;;27.06;39.52;101066.16;5062318;27;45636;-61
2021/09/03 09:51:30;;;;;;;;;14.25;12.50;;;;;27.22;39.42;101062.78;5083723;27;47071;-61
2021/09/03 09:54:03;;;;;;;;;15.00;14.00;;;;;27.37;38.62;101062.28;5083215;27;45681;-61
2021/09/03 09:56:30;;;;;;;;;14.25;12.25;;;;;27.46;38.22;101051.94;5081563;27;45509;-61
2021/09/03 09:58:56;;;;;;;;;14.50;14.00;;;;;27.45;37.62;101060.28;5086211;27;45581;-62
2021/09/03 10:01:21;;;;;;;;;14.25;13.75;;;;;27.38;38.17;101061.25;5089625;27;46052;-62
2021/09/03 10:03:48;;;;;;;;;14.00;12.25;;;;;27.41;38.14;101051.84;5086648;27;46485;-60
2021/09/03 10:06:17;;;;;;;;;14.25;13.25;;;;;27.49;38.34;101054.22;5086084;27;45423;-60
2021/09/03 10:08:45;;;;;;;;;17.25;15.75;;;;;27.65;38.00;101063.44;5084127;27;45542;-60
2021/09/03 10:11:14;;;;;;;;;14.75;13.25;;;;;27.78;37.66;101054.28;5088376;27;46221;-61
2021/09/03 10:13:40;;;;;;;;;11.75;11.75;;;;;27.92;38.05;101053.97;5066140;27;45956;-62
2021/09/03 10:16:05;;;;;;;;;12.25;11.00;;;;;28.07;37.63;101042.69;5082811;27;45456;-62
2021/09/03 10:18:31;;;;;;;;;16.75;16.00;;;;;28.23;37.45;101044.59;5079784;27;66725;-61
2021/09/03 10:20:58;;;;;;;;;11.25;11.25;;;;;28.41;36.55;101034.66;5081991;27;46113;-61
2021/09/03 10:24:00;;;;;;;;;12.75;11.25;;;;;28.62;36.62;101037.69;5044095;27;45939;-62
2021/09/03 10:26:28;;;;;;;;;12.50;10.75;;;;;28.77;36.31;101043.38;5092736;27;45607;-60
2021/09/03 10:29:31;;;;;;;;;11.75;11.50;;;;;28.93;35.69;101041.72;5070938;27;45533;-61
2021/09/03 10:34:47;;;;;;;;;16.00;12.50;;;;;29.25;35.60;101043.00;5086220;27;45945;-60
2021/09/03 10:37:15;;;;;;;;;13.00;13.00;;;;;29.37;35.07;101038.34;5083405;27;46320;-61
2021/09/03 10:40:07;;;;;;;;;12.75;10.75;;;;;29.53;34.91;101038.53;5086950;27;45500;-62
2021/09/03 10:42:56;;;;;;;;;10.00;9.25;;;;;29.59;34.55;101037.53;5086098;27;46228;-61
2021/09/03 10:45:22;;;;;;;;;12.25;10.75;;;;;29.62;34.87;101037.03;5082308;27;45468;-61
2021/09/03 10:47:56;;;;;;;;;12.75;12.00;;;;;29.69;34.89;101037.63;5077943;27;45567;-61
2021/09/03 10:50:35;;;;;;;;;11.50;9.50;;;;;29.75;35.10;101031.22;5087256;27;45871;-61
2021/09/03 10:53:03;;;;;;;;;14.50;11.00;;;;;29.83;35.08;101034.53;5088297;27;45349;-61
2021/09/03 10:56:06;;;;;;;;;12.25;11.25;;;;;29.93;34.30;101033.88;5083673;27;45683;-61
2021/09/03 10:58:41;;;;;;;;;12.25;10.25;;;;;30.05;34.07;101027.25;5084525;27;45503;-62
2021/09/03 11:01:19;;;;;;;;;11.75;11.25;;;;;30.16;33.66;101024.66;5085846;27;45428;-61
2021/09/03 11:03:47;;;;;;;;;13.25;11.75;;;;;30.27;33.69;101025.56;5080818;27;47090;-61
2021/09/03 11:06:15;;;;;;;;;13.75;11.50;;;;;30.38;33.78;101021.03;5081438;27;45450;-62
2021/09/03 11:08:42;;;;;;;;;13.00;12.25;;;;;30.50;33.52;101013.53;5081005;27;45506;-61
2021/09/03 11:11:27;;;;;;;;;12.00;10.75;;;;;30.56;33.22;101012.50;5080909;27;45503;-61